St John, Virgin Islands
Current Conditions -  °F | °C
As of 8:00 PM on Sunday 21 Dec 2014 (Local Time) from TUPJ Reporting Station
Few Clouds Few Clouds  
Wind Chill: 77°   Ceiling: Unl
Heat Index: 79°   Visibility: 6mi
Dew Point: 68°   Wind: 6mph
Humidity: 74%   Direction: 60°ENE
Pressure: 30.03"   Gusts: NA
Location:  18.3333°N, 64.7943°W
Report Text: TUPJ 220000Z 06005KT 9999 FEW023 25/20 Q1017 RMK A3005
Loading
Personal Weather Stations






























Interactive Weather Map New forecast layout! Learn more

10-Day Weather Forecast

Advertisements
Track Severe Weather on mobile